createdAt,value
2022-12-03T00:02:55.034Z,29.48
2022-12-03T00:07:59.215Z,29.33
2022-12-03T00:12:56.686Z,29.48
2022-12-03T00:17:54.078Z,26.70
2022-12-03T00:22:51.467Z,25.13
2022-12-03T00:27:49.294Z,26.48
2022-12-03T00:32:47.675Z,30.90
2022-12-03T00:37:49.682Z,25.15
2022-12-03T00:42:53.752Z,30.90
2022-12-03T00:47:55.936Z,21.05
2022-12-03T00:52:55.976Z,26.60
2022-12-03T00:57:57.384Z,24.90
2022-12-03T01:02:56.439Z,24.40
2022-12-03T01:08:03.879Z,27.73
2022-12-03T01:13:01.890Z,29.00
2022-12-03T01:17:58.958Z,25.70
2022-12-03T01:22:56.058Z,26.10
2022-12-03T01:27:53.154Z,25.00
2022-12-03T01:32:51.190Z,28.10
2022-12-03T01:37:49.852Z,28.33
2022-12-03T01:42:57.655Z,27.73
2022-12-03T01:47:57.526Z,33.03
2022-12-03T01:53:01.403Z,24.73
2022-12-03T01:58:01.058Z,25.35
2022-12-03T02:03:05.313Z,28.17
2022-12-03T02:08:25.470Z,36.00
2022-12-03T02:13:22.788Z,28.70
2022-12-03T02:18:21.351Z,30.15
2022-12-03T02:23:39.681Z,26.02
2022-12-03T02:28:45.867Z,25.38
2022-12-03T02:33:42.814Z,27.20
2022-12-03T02:38:47.710Z,26.13
2022-12-03T02:43:45.797Z,28.97
2022-12-03T02:48:49.245Z,26.55
2022-12-03T02:53:56.768Z,27.95
2022-12-03T02:59:00.922Z,23.50
2022-12-03T03:04:00.246Z,34.67
2022-12-03T03:08:57.866Z,24.73
2022-12-03T03:13:56.302Z,28.75
2022-12-03T03:18:53.877Z,26.38
2022-12-03T03:23:54.022Z,30.35
2022-12-03T03:28:52.157Z,27.40
2022-12-03T03:33:50.946Z,31.90
2022-12-03T03:38:49.934Z,31.38
2022-12-03T03:43:49.856Z,25.92
2022-12-03T03:48:50.238Z,31.05
2022-12-03T03:53:49.759Z,34.60
2022-12-03T03:58:46.700Z,32.15
2022-12-03T04:03:44.517Z,28.40
2022-12-03T04:08:42.530Z,31.77
2022-12-03T04:13:39.526Z,31.05
2022-12-03T04:18:45.785Z,32.13
2022-12-03T04:23:45.652Z,26.70
2022-12-03T04:28:51.153Z,30.65
2022-12-03T04:34:06.052Z,27.33
2022-12-03T04:39:04.321Z,29.23
2022-12-03T04:44:19.487Z,28.25
2022-12-03T04:49:16.473Z,34.97
2022-12-03T04:54:16.454Z,29.58
2022-12-03T04:59:16.267Z,29.95
2022-12-03T05:04:14.175Z,30.25
2022-12-03T05:09:11.505Z,34.50
2022-12-03T05:14:09.674Z,34.00
2022-12-03T05:19:08.837Z,36.55
2022-12-03T05:24:06.580Z,29.67
2022-12-03T05:29:05.039Z,31.50
2022-12-03T05:34:02.688Z,57.75
2022-12-03T05:39:00.164Z,29.80
2022-12-03T05:44:05.658Z,36.92
2022-12-03T05:49:06.114Z,33.92
2022-12-03T05:54:03.112Z,34.05
2022-12-03T05:59:00.531Z,34.35
2022-12-03T06:04:00.550Z,36.35
2022-12-03T06:08:59.400Z,36.65
2022-12-03T06:13:57.577Z,38.88
2022-12-03T06:18:54.727Z,35.45
2022-12-03T06:23:53.059Z,42.35
2022-12-03T06:28:53.770Z,39.75
2022-12-03T06:33:50.687Z,32.47
2022-12-03T06:38:47.841Z,36.38
2022-12-03T06:43:47.990Z,33.15
2022-12-03T06:48:46.048Z,34.00
2022-12-03T06:53:43.529Z,37.55
2022-12-03T06:58:40.489Z,36.95
2022-12-03T07:03:37.650Z,29.95
2022-12-03T07:08:35.653Z,30.75
2022-12-03T07:13:32.816Z,29.30
2022-12-03T07:18:30.142Z,36.88
2022-12-03T07:23:27.355Z,31.65
2022-12-03T07:28:28.054Z,30.88
2022-12-03T07:33:25.899Z,30.90
2022-12-03T07:38:26.214Z,25.50
2022-12-03T07:43:23.375Z,32.67
2022-12-03T07:48:21.661Z,28.50
2022-12-03T07:53:18.959Z,31.20
2022-12-03T07:58:16.637Z,27.52
2022-12-03T08:03:14.812Z,27.50
2022-12-03T08:08:15.026Z,27.55
2022-12-03T08:13:19.586Z,31.48
2022-12-03T08:18:21.890Z,26.75
2022-12-03T08:23:21.955Z,25.13
2022-12-03T08:28:21.963Z,25.60
2022-12-03T08:33:25.814Z,30.17
2022-12-03T08:38:32.396Z,28.33
2022-12-03T08:43:41.374Z,27.20
2022-12-03T08:48:43.981Z,25.27
2022-12-03T08:53:47.578Z,25.00
2022-12-03T08:58:46.730Z,30.30
2022-12-03T09:03:49.274Z,24.25
2022-12-03T09:08:48.777Z,28.50
2022-12-03T09:13:46.080Z,28.48
2022-12-03T09:18:46.123Z,30.83
2022-12-03T09:23:47.099Z,28.40
2022-12-03T09:28:47.802Z,28.13
2022-12-03T09:33:44.899Z,26.50
2022-12-03T09:38:46.281Z,32.40
2022-12-03T09:49:09.471Z,35.80
2022-12-03T09:54:14.251Z,24.83
2022-12-03T09:59:15.618Z,35.85
2022-12-03T10:04:12.955Z,36.90
2022-12-03T10:09:13.791Z,31.52
2022-12-03T10:14:14.460Z,34.80
2022-12-03T10:19:20.163Z,31.95
2022-12-03T10:24:25.314Z,29.75
2022-12-03T10:29:31.374Z,30.45
2022-12-03T10:34:32.963Z,32.65
2022-12-03T10:39:30.114Z,36.63
2022-12-03T10:44:30.086Z,30.83
2022-12-03T10:49:27.144Z,28.33
2022-12-03T10:54:27.361Z,26.35
2022-12-03T10:59:28.268Z,25.73
2022-12-03T11:04:31.503Z,34.40
2022-12-03T11:09:32.175Z,28.67
2022-12-03T11:15:05.872Z,24.58
2022-12-03T11:20:03.193Z,23.63
2022-12-03T11:25:37.497Z,26.98
2022-12-03T11:31:01.679Z,31.27
2022-12-03T11:36:31.614Z,28.65
2022-12-03T11:41:36.741Z,21.77
2022-12-03T11:46:42.736Z,24.23
2022-12-03T11:51:44.839Z,25.23
2022-12-03T11:56:47.592Z,25.13
2022-12-03T12:01:47.237Z,27.83
2022-12-03T12:06:47.457Z,29.52
2022-12-03T12:11:53.164Z,30.25
2022-12-03T12:16:52.897Z,25.08
2022-12-03T12:21:50.288Z,27.25
2022-12-03T12:26:50.893Z,29.40
2022-12-03T12:31:53.726Z,27.92
2022-12-03T12:36:52.675Z,27.27
2022-12-03T12:41:51.415Z,25.52
2022-12-03T12:46:54.577Z,27.48
2022-12-03T12:51:53.863Z,26.00
2022-12-03T12:56:51.137Z,29.48
2022-12-03T13:01:49.932Z,27.02
2022-12-03T13:06:54.526Z,23.65
2022-12-03T13:11:53.936Z,25.17
2022-12-03T13:16:55.356Z,25.20
2022-12-03T13:21:54.110Z,53.72
2022-12-03T13:26:53.451Z,28.20
2022-12-03T13:31:54.520Z,26.13
2022-12-03T13:36:57.697Z,24.35
2022-12-03T13:42:14.716Z,23.40
2022-12-03T13:47:14.885Z,20.90
2022-12-03T13:52:16.574Z,24.67
2022-12-03T13:57:15.090Z,26.55
2022-12-03T14:02:18.552Z,26.73
2022-12-03T14:07:20.476Z,26.35
2022-12-03T14:12:26.862Z,22.45
2022-12-03T14:17:29.436Z,24.38
2022-12-03T14:22:29.136Z,25.05
2022-12-03T14:27:28.072Z,25.95
2022-12-03T14:32:30.678Z,27.77
2022-12-03T14:37:29.434Z,22.88
2022-12-03T14:42:29.828Z,22.95
2022-12-03T14:47:27.008Z,22.67
2022-12-03T14:52:25.492Z,27.33
2022-12-03T14:57:22.931Z,26.75
2022-12-03T15:02:23.628Z,27.42
2022-12-03T15:07:20.784Z,32.65
2022-12-03T15:12:17.891Z,26.17
2022-12-03T15:17:15.061Z,25.20
2022-12-03T15:22:13.135Z,29.02
2022-12-03T15:27:10.479Z,32.13
2022-12-03T15:32:07.559Z,29.60
2022-12-03T15:37:05.710Z,30.70
2022-12-03T15:42:03.981Z,29.70
2022-12-03T15:47:01.322Z,31.25
2022-12-03T15:52:03.997Z,27.52
2022-12-03T15:57:04.076Z,29.65
2022-12-03T16:02:02.360Z,31.60
2022-12-03T16:07:02.269Z,24.13
2022-12-03T16:12:01.683Z,24.15
2022-12-03T16:17:01.952Z,32.45
2022-12-03T16:22:02.786Z,23.60
2022-12-03T16:26:59.794Z,24.80
2022-12-03T16:31:58.559Z,24.13
2022-12-03T16:36:58.100Z,26.42
2022-12-03T16:41:58.505Z,23.88
2022-12-03T16:46:59.751Z,27.08
2022-12-03T16:52:30.480Z,23.63
2022-12-03T16:57:33.408Z,24.70
2022-12-03T17:02:36.904Z,24.73
2022-12-03T17:07:34.097Z,26.17
2022-12-03T17:12:54.150Z,26.55
2022-12-03T17:17:49.320Z,29.35
2022-12-03T17:22:46.343Z,26.33
2022-12-03T17:27:45.493Z,26.88
2022-12-03T17:32:42.930Z,27.00
2022-12-03T17:37:40.136Z,26.05
2022-12-03T17:42:44.967Z,30.38
2022-12-03T17:47:48.678Z,28.92
2022-12-03T17:52:46.007Z,27.38
2022-12-03T17:57:43.017Z,29.25
2022-12-03T18:02:43.896Z,30.48
2022-12-03T18:07:41.559Z,27.30
2022-12-03T18:12:44.014Z,32.03
2022-12-03T18:17:41.074Z,27.23
2022-12-03T18:22:38.573Z,29.45
2022-12-03T18:27:39.655Z,31.20
2022-12-03T18:32:37.594Z,26.45
2022-12-03T18:37:35.127Z,26.13
2022-12-03T18:42:37.612Z,30.02
2022-12-03T18:47:37.543Z,25.05
2022-12-03T18:52:34.638Z,24.75
2022-12-03T18:57:31.711Z,28.90
2022-12-03T19:03:01.149Z,25.20
2022-12-03T19:07:50.814Z,27.75
2022-12-03T19:12:48.487Z,34.13
2022-12-03T19:17:49.480Z,32.33
2022-12-03T19:22:49.783Z,30.67
2022-12-03T19:27:48.693Z,30.58
2022-12-03T19:32:47.061Z,28.63
2022-12-03T19:37:45.767Z,33.10
2022-12-03T19:42:43.111Z,30.83
2022-12-03T19:47:45.698Z,30.02
2022-12-03T19:52:44.229Z,33.67
2022-12-03T19:57:41.223Z,34.70
2022-12-03T20:02:38.207Z,28.60
2022-12-03T20:07:35.279Z,31.63
2022-12-03T20:12:33.329Z,32.78
2022-12-03T20:17:30.647Z,30.83
2022-12-03T20:22:30.506Z,27.95
2022-12-03T20:27:27.638Z,30.08
2022-12-03T20:32:31.859Z,25.80
2022-12-03T20:37:29.290Z,31.20
2022-12-03T20:42:28.345Z,33.00
2022-12-03T20:47:26.175Z,32.28
2022-12-03T20:52:22.998Z,31.83
2022-12-03T20:57:19.953Z,26.75
2022-12-03T21:02:17.071Z,28.83
2022-12-03T21:07:14.658Z,27.60
2022-12-03T21:12:11.684Z,27.80
2022-12-03T21:17:09.519Z,29.30
2022-12-03T21:22:06.896Z,29.50
2022-12-03T21:27:04.854Z,29.30
2022-12-03T21:32:04.581Z,25.73
2022-12-03T21:37:10.570Z,26.38
2022-12-03T21:42:34.043Z,36.78
2022-12-03T21:47:25.635Z,32.00
2022-12-03T21:52:59.208Z,41.55
2022-12-03T21:58:07.239Z,32.53
2022-12-03T22:03:04.274Z,38.75
2022-12-03T22:08:01.286Z,41.67
2022-12-03T22:12:58.267Z,41.25
2022-12-03T22:17:55.930Z,43.40
2022-12-03T22:22:52.839Z,42.40
2022-12-03T22:27:50.133Z,41.78
2022-12-03T22:32:47.131Z,42.10
2022-12-03T22:37:44.773Z,40.35
2022-12-03T22:42:47.777Z,50.70
2022-12-03T22:47:47.727Z,45.05
2022-12-03T22:52:45.529Z,42.95
2022-12-03T22:57:42.557Z,41.13
2022-12-03T23:02:39.645Z,42.85
2022-12-03T23:07:36.773Z,46.60
2022-12-03T23:12:34.402Z,44.83
2022-12-03T23:17:31.525Z,45.03
2022-12-03T23:22:28.534Z,42.55
2022-12-03T23:27:25.381Z,43.38
2022-12-03T23:32:23.250Z,44.97
2022-12-03T23:37:20.221Z,39.85
2022-12-03T23:42:17.143Z,39.53
2022-12-03T23:47:14.506Z,42.97
2022-12-03T23:52:12.393Z,43.17
2022-12-03T23:57:09.244Z,45.92
